createdAt,value
2022-12-07T00:01:45.181Z,13.10
2022-12-07T00:04:15.603Z,15.27
2022-12-07T00:06:45.813Z,16.23
2022-12-07T00:09:16.802Z,17.17
2022-12-07T00:11:49.079Z,16.58
2022-12-07T00:14:18.800Z,15.57
2022-12-07T00:16:49.473Z,15.43
2022-12-07T00:19:16.839Z,14.98
2022-12-07T00:21:44.596Z,16.52
2022-12-07T00:24:13.660Z,15.93
2022-12-07T00:26:42.828Z,15.93
2022-12-07T00:29:17.951Z,15.20
2022-12-07T00:31:46.689Z,15.18
2022-12-07T00:34:17.900Z,14.55
2022-12-07T00:36:45.385Z,14.88
2022-12-07T00:39:12.810Z,13.20
2022-12-07T00:41:41.016Z,15.23
2022-12-07T00:44:09.582Z,15.25
2022-12-07T00:46:39.218Z,16.10
2022-12-07T00:49:07.584Z,15.35
2022-12-07T00:51:34.961Z,15.05
2022-12-07T00:54:02.704Z,18.25
2022-12-07T00:56:33.106Z,17.77
2022-12-07T00:59:03.220Z,17.15
2022-12-07T01:01:33.631Z,16.95
2022-12-07T01:04:03.743Z,17.73
2022-12-07T01:06:32.136Z,18.77
2022-12-07T01:09:00.238Z,17.52
2022-12-07T01:11:30.249Z,17.30
2022-12-07T01:14:00.287Z,18.08
2022-12-07T01:16:30.327Z,18.17
2022-12-07T01:18:59.023Z,18.90
2022-12-07T01:21:30.322Z,19.42
2022-12-07T01:23:59.169Z,19.20
2022-12-07T01:26:27.689Z,18.98
2022-12-07T01:28:56.080Z,19.02
2022-12-07T01:31:26.279Z,17.83
2022-12-07T01:33:56.482Z,17.58
2022-12-07T01:36:27.914Z,16.70
2022-12-07T01:38:58.184Z,17.63
2022-12-07T01:41:29.423Z,19.33
2022-12-07T01:44:34.119Z,19.13
2022-12-07T01:47:05.081Z,20.08
2022-12-07T01:49:46.529Z,19.53
2022-12-07T01:52:24.122Z,19.52
2022-12-07T01:54:55.772Z,19.63
2022-12-07T01:57:24.372Z,20.83
2022-12-07T01:59:53.126Z,20.70
2022-12-07T02:02:33.108Z,20.42
2022-12-07T02:05:03.895Z,20.90
2022-12-07T02:07:34.662Z,19.65
2022-12-07T02:10:22.748Z,19.30
2022-12-07T02:12:55.335Z,18.65
2022-12-07T02:15:36.732Z,20.27
2022-12-07T02:18:33.739Z,19.83
2022-12-07T02:21:10.128Z,17.13
2022-12-07T02:23:52.691Z,17.60
2022-12-07T02:26:45.588Z,19.25
2022-12-07T02:29:28.026Z,17.63
2022-12-07T02:32:24.439Z,16.55
2022-12-07T02:35:02.090Z,17.02
2022-12-07T02:37:49.426Z,18.00
2022-12-07T02:40:34.984Z,16.67
2022-12-07T02:43:12.531Z,16.98
2022-12-07T02:45:42.931Z,16.52
2022-12-07T02:48:14.283Z,16.13
2022-12-07T02:50:48.851Z,16.52
2022-12-07T02:53:35.133Z,16.38
2022-12-07T02:56:11.583Z,15.50
2022-12-07T02:59:08.177Z,14.25
2022-12-07T03:01:44.595Z,14.27
2022-12-07T03:04:39.050Z,13.68
2022-12-07T03:07:33.622Z,16.05
2022-12-07T03:10:04.628Z,16.95
2022-12-07T03:12:54.857Z,15.15
2022-12-07T03:15:54.003Z,15.85
2022-12-07T03:18:25.790Z,14.15
2022-12-07T03:20:56.341Z,13.55
2022-12-07T03:23:26.325Z,13.38
2022-12-07T03:26:00.794Z,13.05
2022-12-07T03:28:34.400Z,12.40
2022-12-07T03:31:10.893Z,12.60
2022-12-07T03:33:44.900Z,12.57
2022-12-07T03:36:29.513Z,12.40
2022-12-07T03:39:13.932Z,13.02
2022-12-07T03:41:45.205Z,14.18
2022-12-07T03:44:13.903Z,14.63
2022-12-07T03:47:17.728Z,14.43
2022-12-07T03:49:53.278Z,17.70
2022-12-07T03:52:32.067Z,19.05
2022-12-07T03:55:09.242Z,18.23
2022-12-07T03:57:39.022Z,18.25
2022-12-07T04:00:08.565Z,17.42
2022-12-07T04:02:43.604Z,17.33
2022-12-07T04:05:12.024Z,18.67
2022-12-07T04:07:39.854Z,20.98
2022-12-07T04:10:07.776Z,20.10
2022-12-07T04:12:35.065Z,20.90
2022-12-07T04:15:02.383Z,23.27
2022-12-07T04:17:30.143Z,23.10
2022-12-07T04:19:57.907Z,23.90
2022-12-07T04:22:25.368Z,23.27
2022-12-07T04:24:52.611Z,21.50
2022-12-07T04:27:19.867Z,20.00
2022-12-07T04:29:47.158Z,20.55
2022-12-07T04:32:14.439Z,20.88
2022-12-07T04:34:41.836Z,19.17
2022-12-07T04:37:09.595Z,20.70
2022-12-07T04:39:37.475Z,19.05
2022-12-07T04:42:05.106Z,17.65
2022-12-07T04:44:32.759Z,19.42
2022-12-07T04:47:00.253Z,18.33
2022-12-07T04:49:27.981Z,19.48
2022-12-07T04:51:55.538Z,18.83
2022-12-07T04:54:22.933Z,18.60
2022-12-07T04:56:51.040Z,18.75
2022-12-07T04:59:19.721Z,19.45
2022-12-07T05:01:47.137Z,19.45
2022-12-07T05:04:14.515Z,19.83
2022-12-07T05:06:42.423Z,19.52
2022-12-07T05:09:09.712Z,20.25
2022-12-07T05:11:39.803Z,20.30
2022-12-07T05:14:14.847Z,19.17
2022-12-07T05:16:43.611Z,20.02
2022-12-07T05:19:11.556Z,19.98
2022-12-07T05:21:40.212Z,19.60
2022-12-07T05:24:08.571Z,19.48
2022-12-07T05:26:35.956Z,18.95
2022-12-07T05:29:04.128Z,18.52
2022-12-07T05:31:31.627Z,20.33
2022-12-07T05:33:59.082Z,19.30
2022-12-07T05:36:26.424Z,19.48
2022-12-07T05:38:53.667Z,20.50
2022-12-07T05:41:39.689Z,21.55
2022-12-07T05:44:07.346Z,20.83
2022-12-07T05:46:35.679Z,24.40
2022-12-07T05:49:03.739Z,24.98
2022-12-07T05:51:31.765Z,25.15
2022-12-07T05:53:59.480Z,23.30
2022-12-07T05:56:27.607Z,23.92
2022-12-07T05:59:13.689Z,22.75
2022-12-07T06:01:41.469Z,24.35
2022-12-07T06:04:09.525Z,23.17
2022-12-07T06:06:37.926Z,24.38
2022-12-07T06:09:05.375Z,25.85
2022-12-07T06:11:51.285Z,23.35
2022-12-07T06:14:19.032Z,23.95
2022-12-07T06:16:46.580Z,23.95
2022-12-07T06:19:13.949Z,23.60
2022-12-07T06:21:44.272Z,23.85
2022-12-07T06:24:13.079Z,24.45
2022-12-07T06:26:40.772Z,25.00
2022-12-07T06:29:08.863Z,23.70
2022-12-07T06:31:36.663Z,25.67
2022-12-07T06:34:10.985Z,25.50
2022-12-07T06:36:39.169Z,27.77
2022-12-07T06:39:08.905Z,28.30
2022-12-07T06:41:40.122Z,29.02
2022-12-07T06:44:07.903Z,29.02
2022-12-07T06:46:36.666Z,27.58
2022-12-07T06:49:05.638Z,27.33
2022-12-07T06:51:34.016Z,27.10
2022-12-07T06:54:04.872Z,28.25
2022-12-07T06:56:32.631Z,27.65
2022-12-07T06:58:59.999Z,27.25
2022-12-07T07:01:27.563Z,25.83
2022-12-07T07:03:55.111Z,27.77
2022-12-07T07:06:22.415Z,27.63
2022-12-07T07:08:50.793Z,28.70
2022-12-07T07:11:18.328Z,27.90
2022-12-07T07:13:46.474Z,27.23
2022-12-07T07:16:14.147Z,30.42
2022-12-07T07:18:44.400Z,28.13
2022-12-07T07:21:12.577Z,29.92
2022-12-07T07:23:39.797Z,30.25
2022-12-07T07:26:07.453Z,31.55
2022-12-07T07:28:34.738Z,31.13
2022-12-07T07:31:02.128Z,30.83
2022-12-07T07:33:30.023Z,31.67
2022-12-07T07:35:57.404Z,32.13
2022-12-07T07:38:24.891Z,34.78
2022-12-07T07:40:52.604Z,35.80
2022-12-07T07:43:20.363Z,34.78
2022-12-07T07:45:48.038Z,32.35
2022-12-07T07:48:15.327Z,34.92
2022-12-07T07:50:42.583Z,32.03
2022-12-07T07:53:09.927Z,34.40
2022-12-07T07:55:37.822Z,31.90
2022-12-07T07:58:05.659Z,34.80
2022-12-07T08:00:33.423Z,28.85
2022-12-07T08:03:00.700Z,28.90
2022-12-07T08:05:28.087Z,29.58
2022-12-07T08:07:55.473Z,30.20
2022-12-07T08:10:22.842Z,32.30
2022-12-07T08:13:09.678Z,30.63
2022-12-07T08:15:39.261Z,29.38
2022-12-07T08:18:07.379Z,30.42
2022-12-07T08:20:36.637Z,31.02
2022-12-07T08:23:04.950Z,30.45
2022-12-07T08:25:33.390Z,29.90
2022-12-07T08:28:01.569Z,28.95
2022-12-07T08:30:30.604Z,30.77
2022-12-07T08:32:58.690Z,27.13
2022-12-07T08:35:27.160Z,30.55
2022-12-07T08:37:54.555Z,28.48
2022-12-07T08:40:22.618Z,31.23
2022-12-07T08:42:51.379Z,30.52
2022-12-07T08:45:26.289Z,29.33
2022-12-07T08:48:08.804Z,30.52
2022-12-07T08:50:38.419Z,31.67
2022-12-07T08:53:07.055Z,31.77
2022-12-07T08:55:35.171Z,30.80
2022-12-07T08:58:04.043Z,29.42
2022-12-07T09:00:31.323Z,30.33
2022-12-07T09:02:58.772Z,32.40
2022-12-07T09:05:27.004Z,32.80
2022-12-07T09:07:58.962Z,31.75
2022-12-07T09:10:27.042Z,30.30
2022-12-07T09:12:54.971Z,33.95
2022-12-07T09:15:22.267Z,32.38
2022-12-07T09:17:49.720Z,32.05
2022-12-07T09:20:17.182Z,31.85
2022-12-07T09:22:44.934Z,32.05
2022-12-07T09:25:12.902Z,32.22
2022-12-07T09:27:40.787Z,31.55
2022-12-07T09:30:09.393Z,31.23
2022-12-07T09:32:37.744Z,30.90
2022-12-07T09:35:05.713Z,31.83
2022-12-07T09:37:36.123Z,32.17
2022-12-07T09:40:05.601Z,29.92
2022-12-07T09:42:40.742Z,31.30
2022-12-07T09:45:15.155Z,32.17
2022-12-07T09:47:42.829Z,33.03
2022-12-07T09:50:21.607Z,33.65
2022-12-07T09:52:49.942Z,37.15
2022-12-07T09:55:25.004Z,34.28
2022-12-07T09:57:53.319Z,34.28
2022-12-07T10:00:23.902Z,33.78
2022-12-07T10:02:58.292Z,33.17
2022-12-07T10:05:31.701Z,33.83
2022-12-07T10:07:59.645Z,35.17
2022-12-07T10:10:35.313Z,37.40
2022-12-07T10:13:12.037Z,36.42
2022-12-07T10:15:50.873Z,34.17
2022-12-07T10:18:42.101Z,36.28
2022-12-07T10:21:10.002Z,38.03
2022-12-07T10:23:40.159Z,35.83
2022-12-07T10:26:35.975Z,35.30
2022-12-07T10:29:30.078Z,34.50
2022-12-07T10:32:00.945Z,36.83
2022-12-07T10:34:41.425Z,36.35
2022-12-07T10:37:10.471Z,33.08
2022-12-07T10:39:47.987Z,33.25
2022-12-07T10:42:23.095Z,34.58
2022-12-07T10:45:07.795Z,34.88
2022-12-07T10:48:09.623Z,35.83
2022-12-07T10:50:56.975Z,34.63
2022-12-07T10:53:38.269Z,36.10
2022-12-07T10:56:38.142Z,40.33
2022-12-07T10:59:36.219Z,34.97
2022-12-07T11:03:03.979Z,34.88
2022-12-07T11:05:43.015Z,35.38
2022-12-07T11:08:15.388Z,37.30
2022-12-07T11:10:53.184Z,39.92
2022-12-07T11:13:34.564Z,38.17
2022-12-07T11:16:16.423Z,39.08
2022-12-07T11:19:28.419Z,37.42
2022-12-07T11:22:04.721Z,39.42
2022-12-07T11:25:00.687Z,36.92
2022-12-07T11:28:04.450Z,38.90
2022-12-07T11:30:50.558Z,35.15
2022-12-07T11:33:26.735Z,35.30
2022-12-07T11:36:02.140Z,36.35
2022-12-07T11:38:46.848Z,34.20
2022-12-07T11:41:17.176Z,34.40
2022-12-07T11:43:53.707Z,36.33
2022-12-07T11:46:26.205Z,34.95
2022-12-07T11:49:24.047Z,36.53
2022-12-07T11:51:56.750Z,36.90
2022-12-07T11:54:45.597Z,36.22
2022-12-07T11:57:21.588Z,36.22
2022-12-07T12:00:02.223Z,36.22
2022-12-07T12:02:57.832Z,34.47
2022-12-07T12:05:27.155Z,35.92
2022-12-07T12:11:39.022Z,36.55
2022-12-07T12:14:46.703Z,35.65
2022-12-07T12:17:21.583Z,34.83
2022-12-07T12:20:07.580Z,36.10
2022-12-07T12:22:42.514Z,35.78
2022-12-07T12:25:26.938Z,35.05
2022-12-07T12:27:58.587Z,36.45
2022-12-07T12:30:34.757Z,36.30
2022-12-07T12:33:06.334Z,34.88
2022-12-07T12:35:38.660Z,36.13
2022-12-07T12:38:21.556Z,37.25
2022-12-07T12:40:51.291Z,36.40
2022-12-07T12:43:55.674Z,36.17
2022-12-07T12:46:34.817Z,37.72
2022-12-07T12:49:17.556Z,35.83
2022-12-07T12:51:50.321Z,36.80
2022-12-07T12:54:28.652Z,37.65
2022-12-07T12:57:14.465Z,36.50
2022-12-07T12:59:57.215Z,37.25
2022-12-07T13:02:32.074Z,39.10
2022-12-07T13:05:17.027Z,38.47
2022-12-07T13:07:54.273Z,36.45
2022-12-07T13:10:26.800Z,37.95
2022-12-07T13:13:12.468Z,36.97
2022-12-07T13:15:42.337Z,37.70
2022-12-07T13:18:28.349Z,38.05
2022-12-07T13:21:07.762Z,37.55
2022-12-07T13:23:45.044Z,38.88
2022-12-07T13:26:18.962Z,42.42
2022-12-07T13:28:52.387Z,42.47
2022-12-07T13:31:37.371Z,40.97
2022-12-07T13:34:06.548Z,39.22
2022-12-07T13:36:40.882Z,41.28
2022-12-07T13:39:19.163Z,39.42
2022-12-07T13:41:54.520Z,38.78
2022-12-07T13:44:22.663Z,39.58
2022-12-07T13:47:08.374Z,39.20
2022-12-07T13:49:57.525Z,40.15
2022-12-07T13:52:27.725Z,43.15
2022-12-07T13:55:03.987Z,42.55
2022-12-07T13:57:35.721Z,40.30
2022-12-07T14:00:06.868Z,38.00
2022-12-07T14:02:44.086Z,39.30
2022-12-07T14:05:27.843Z,40.00
2022-12-07T14:08:06.605Z,41.70
2022-12-07T14:10:50.783Z,38.72
2022-12-07T14:13:35.811Z,39.13
2022-12-07T14:16:06.477Z,37.50
2022-12-07T14:18:41.472Z,40.25
2022-12-07T14:21:12.049Z,39.55
2022-12-07T14:23:40.312Z,51.33
2022-12-07T14:26:20.911Z,46.70
2022-12-07T14:28:48.787Z,43.55
2022-12-07T14:31:25.188Z,42.72
2022-12-07T14:34:00.632Z,45.67
2022-12-07T14:36:27.979Z,45.55
2022-12-07T14:38:57.129Z,41.85
2022-12-07T14:41:43.567Z,42.00
2022-12-07T14:44:35.277Z,39.55
2022-12-07T14:49:48.191Z,42.15
2022-12-07T14:55:17.633Z,38.95
2022-12-07T14:57:45.384Z,36.28
2022-12-07T15:00:18.080Z,38.75
2022-12-07T15:02:47.249Z,38.15
2022-12-07T15:05:16.643Z,37.67
2022-12-07T15:07:45.483Z,40.95
2022-12-07T15:10:23.790Z,41.05
2022-12-07T15:12:52.182Z,42.65
2022-12-07T15:15:19.605Z,39.78
2022-12-07T15:17:47.532Z,40.88
2022-12-07T15:20:17.655Z,41.70
2022-12-07T15:22:45.452Z,40.88
2022-12-07T15:25:15.233Z,44.33
2022-12-07T15:27:42.822Z,46.05
2022-12-07T15:30:10.447Z,45.97
2022-12-07T15:32:37.905Z,45.13
2022-12-07T15:35:06.027Z,44.00
2022-12-07T15:37:33.917Z,44.85
2022-12-07T15:40:05.881Z,44.05
2022-12-07T15:42:36.910Z,43.55
2022-12-07T15:45:07.411Z,44.55
2022-12-07T15:48:02.468Z,42.10
2022-12-07T15:50:26.943Z,43.50
2022-12-07T15:52:54.722Z,41.67
2022-12-07T15:55:22.043Z,44.67
2022-12-07T15:57:50.445Z,44.80
2022-12-07T16:00:18.855Z,47.78
2022-12-07T16:02:46.371Z,42.58
2022-12-07T16:05:14.296Z,42.72
2022-12-07T16:07:41.820Z,44.05
2022-12-07T16:10:09.662Z,43.33
2022-12-07T16:12:37.383Z,47.72
2022-12-07T16:15:05.948Z,43.13
2022-12-07T16:17:33.370Z,43.78
2022-12-07T16:20:01.151Z,44.47
2022-12-07T16:22:28.563Z,44.47
2022-12-07T16:24:55.822Z,42.50
2022-12-07T16:27:23.458Z,41.30
2022-12-07T16:29:50.796Z,41.00
2022-12-07T16:32:18.224Z,39.80
2022-12-07T16:34:45.834Z,41.97
2022-12-07T16:37:13.670Z,41.22
2022-12-07T16:39:41.636Z,43.10
2022-12-07T16:42:09.266Z,42.40
2022-12-07T16:44:37.338Z,46.90
2022-12-07T16:47:04.767Z,45.75
2022-12-07T16:49:32.307Z,42.85
2022-12-07T16:54:47.997Z,43.67
2022-12-07T16:57:21.853Z,44.05
2022-12-07T16:59:50.530Z,44.33
2022-12-07T17:02:18.388Z,41.28
2022-12-07T17:04:45.709Z,43.55
2022-12-07T17:07:13.295Z,43.45
2022-12-07T17:09:40.735Z,44.13
2022-12-07T17:12:08.060Z,45.33
2022-12-07T17:14:54.420Z,41.67
2022-12-07T17:17:22.116Z,42.58
2022-12-07T17:19:49.451Z,41.03
2022-12-07T17:22:16.864Z,42.60
2022-12-07T17:24:44.345Z,42.42
2022-12-07T17:27:14.914Z,43.20
2022-12-07T17:29:42.238Z,44.17
2022-12-07T17:32:09.840Z,43.63
2022-12-07T17:34:37.914Z,43.47
2022-12-07T17:37:05.377Z,42.65
2022-12-07T17:39:32.687Z,41.85
2022-12-07T17:42:18.546Z,43.45
2022-12-07T17:44:45.818Z,43.58
2022-12-07T17:47:13.282Z,43.40
2022-12-07T17:49:41.151Z,43.83
2022-12-07T17:52:27.882Z,47.75
2022-12-07T17:54:55.741Z,43.92
2022-12-07T17:57:23.500Z,48.97
2022-12-07T17:59:52.053Z,45.33
2022-12-07T18:02:19.650Z,46.05
2022-12-07T18:04:47.602Z,44.10
2022-12-07T18:07:15.438Z,41.70
2022-12-07T18:09:43.654Z,45.10
2022-12-07T18:12:11.181Z,53.42
2022-12-07T18:14:38.657Z,48.83
2022-12-07T18:17:06.275Z,51.88
2022-12-07T18:19:37.026Z,46.50
2022-12-07T18:22:04.898Z,43.88
2022-12-07T18:24:36.707Z,44.65
2022-12-07T18:27:06.724Z,47.65
2022-12-07T18:29:42.259Z,45.20
2022-12-07T18:32:12.763Z,45.10
2022-12-07T18:34:41.316Z,44.15
2022-12-07T18:37:08.604Z,45.35
2022-12-07T18:39:35.888Z,44.90
2022-12-07T18:42:03.425Z,45.20
2022-12-07T18:44:30.676Z,45.90
2022-12-07T18:46:58.477Z,45.25
2022-12-07T18:49:26.175Z,46.78
2022-12-07T18:51:53.857Z,48.30
2022-12-07T18:54:21.694Z,49.83
2022-12-07T18:56:49.460Z,51.28
2022-12-07T18:59:35.390Z,49.25
2022-12-07T19:02:03.259Z,46.85
2022-12-07T19:04:30.911Z,45.67
2022-12-07T19:06:58.721Z,44.95
2022-12-07T19:09:26.125Z,47.03
2022-12-07T19:11:54.702Z,48.53
2022-12-07T19:14:26.340Z,51.33
2022-12-07T19:16:56.683Z,51.00
2022-12-07T19:19:32.555Z,48.90
2022-12-07T19:22:00.462Z,50.53
2022-12-07T19:24:28.943Z,48.30
2022-12-07T19:26:56.783Z,49.60
2022-12-07T19:29:24.314Z,52.47
2022-12-07T19:31:52.046Z,51.08
2022-12-07T19:34:19.646Z,54.53
2022-12-07T19:36:47.297Z,53.47
2022-12-07T19:39:16.130Z,52.38
2022-12-07T19:41:46.239Z,55.15
2022-12-07T19:44:23.459Z,55.78
2022-12-07T19:46:55.641Z,53.38
2022-12-07T19:49:26.964Z,55.28
2022-12-07T19:51:56.901Z,55.35
2022-12-07T19:54:28.121Z,52.90
2022-12-07T19:56:57.004Z,55.78
2022-12-07T19:59:28.227Z,52.65
2022-12-07T20:01:56.705Z,55.38
2022-12-07T20:04:26.565Z,51.20
2022-12-07T20:06:57.055Z,52.10
2022-12-07T20:09:24.527Z,52.72
2022-12-07T20:12:10.907Z,51.30
2022-12-07T20:14:38.462Z,53.45
2022-12-07T20:17:06.377Z,54.45
2022-12-07T20:19:37.511Z,54.25
2022-12-07T20:22:05.545Z,55.08
2022-12-07T20:24:35.079Z,55.10
2022-12-07T20:27:04.295Z,53.85
2022-12-07T20:29:31.724Z,54.20
2022-12-07T20:31:59.635Z,56.33
2022-12-07T20:34:27.113Z,55.42
2022-12-07T20:36:55.252Z,57.60
2022-12-07T20:39:23.697Z,55.83
2022-12-07T20:42:09.726Z,57.67
2022-12-07T20:44:38.258Z,56.53
2022-12-07T20:47:06.781Z,56.80
2022-12-07T20:49:35.390Z,60.28
2022-12-07T20:52:03.646Z,61.55
2022-12-07T20:54:31.004Z,60.40
2022-12-07T20:56:58.291Z,59.25
2022-12-07T20:59:25.809Z,61.85
2022-12-07T21:01:53.707Z,57.65
2022-12-07T21:04:21.066Z,57.13
2022-12-07T21:06:48.452Z,55.92
2022-12-07T21:09:15.922Z,59.17
2022-12-07T21:11:43.283Z,58.85
2022-12-07T21:14:10.588Z,58.78
2022-12-07T21:16:37.958Z,58.10
2022-12-07T21:19:05.870Z,59.45
2022-12-07T21:21:34.419Z,57.00
2022-12-07T21:24:03.794Z,60.30
2022-12-07T21:26:34.244Z,57.17
2022-12-07T21:29:06.548Z,59.03
2022-12-07T21:31:35.493Z,59.13
2022-12-07T21:34:04.368Z,59.92
2022-12-07T21:36:32.560Z,56.05
2022-12-07T21:38:59.817Z,55.72
2022-12-07T21:41:35.124Z,57.00
2022-12-07T21:44:07.189Z,53.50
2022-12-07T21:46:34.997Z,56.03
2022-12-07T21:49:08.602Z,53.53
2022-12-07T21:51:36.579Z,54.28
2022-12-07T21:54:06.263Z,53.88
2022-12-07T21:56:42.450Z,55.90
2022-12-07T21:59:15.567Z,53.70
2022-12-07T22:01:47.299Z,54.35
2022-12-07T22:06:53.492Z,53.40
2022-12-07T22:09:23.473Z,55.17
2022-12-07T22:11:50.856Z,56.33
2022-12-07T22:14:37.830Z,57.45
2022-12-07T22:17:05.202Z,57.22
2022-12-07T22:19:32.487Z,58.45
2022-12-07T22:21:59.784Z,62.28
2022-12-07T22:24:27.072Z,63.03
2022-12-07T22:26:54.475Z,55.33
2022-12-07T22:29:24.171Z,56.38
2022-12-07T22:31:53.913Z,54.38
2022-12-07T22:34:21.762Z,55.42
2022-12-07T22:36:49.074Z,56.85
2022-12-07T22:39:16.728Z,53.63
2022-12-07T22:41:44.514Z,53.97
2022-12-07T22:44:11.850Z,53.13
2022-12-07T22:46:40.493Z,53.97
2022-12-07T22:49:07.940Z,54.83
2022-12-07T22:51:37.750Z,55.13
2022-12-07T22:54:08.482Z,54.03
2022-12-07T22:56:37.456Z,52.72
2022-12-07T22:59:07.096Z,52.25
2022-12-07T23:01:35.446Z,54.17
2022-12-07T23:04:03.224Z,52.47
2022-12-07T23:06:33.320Z,53.88
2022-12-07T23:09:02.800Z,52.97
2022-12-07T23:11:51.337Z,51.92
